Time;durP1;ratioP1;P1;durP2;ratioP2;P2;SDS_P1;SDS_P2;PMS_P1;PMS_P2;Temp;Humidity;BMP_temperature;BMP_pressure;BME280_temperature;BME280_humidity;BME280_pressure;Samples;Min_cycle;Max_cycle;Signal;HPM_P1;HPM_P2
2022/12/31 00:02:01;;;;;;;;;;;;;;;1.16;96.23;99178.31;4928987;28;19935;-66
2022/12/31 00:04:27;;;;;;;;;;;;;;;1.15;96.68;99177.53;4925890;29;20406;-67
2022/12/31 00:06:53;;;;;;;;;;;;;;;1.16;96.53;99178.31;4926398;29;19937;-66
2022/12/31 00:09:22;;;;;;;;;;;;;;;1.14;96.85;99175.88;4928075;29;19931;-67
2022/12/31 00:11:47;;;;;;;;;;;;;;;1.15;96.90;99169.44;4925598;29;20296;-66
2022/12/31 00:14:13;;;;;;;;;;;;;;;1.16;97.02;99173.78;4929271;29;19935;-66
2022/12/31 00:16:40;;;;;;;;;;;;;;;1.16;97.08;99176.47;4926312;29;20414;-67
2022/12/31 00:19:07;;;;;;;;;;;;;;;1.13;97.26;99177.72;4929459;29;20366;-66
2022/12/31 00:21:33;;;;;;;;;;;;;;;1.08;97.54;99171.38;4927690;29;19930;-66
2022/12/31 00:23:59;;;;;;;;;;;;;;;1.03;97.52;99172.09;4928319;29;19931;-66
2022/12/31 00:26:29;;;;;;;;;;;;;;;1.03;97.90;99163.19;4927389;29;20353;-66
2022/12/31 00:28:55;;;;;;;;;;;;;;;1.03;97.93;99171.25;4924081;29;20422;-66
2022/12/31 00:31:22;;;;;;;;;;;;;;;1.02;98.05;99167.75;4924204;29;19937;-67
2022/12/31 00:33:48;;;;;;;;;;;;;;;0.99;97.97;99165.50;4924848;29;19931;-65
2022/12/31 00:36:14;;;;;;;;;;;;;;;0.98;98.05;99170.06;4949621;28;20434;-66
2022/12/31 00:38:41;;;;;;;;;;;;;;;0.96;98.14;99158.72;4947042;28;19934;-67
2022/12/31 00:41:07;;;;;;;;;;;;;;;0.91;98.42;99163.13;4947389;28;19953;-66
2022/12/31 00:43:34;;;;;;;;;;;;;;;0.87;98.54;99161.94;4951005;28;20457;-66
2022/12/31 00:46:00;;;;;;;;;;;;;;;0.83;98.37;99164.25;4947469;28;19937;-66
2022/12/31 00:48:26;;;;;;;;;;;;;;;0.80;98.62;99162.03;4947223;29;19930;-67
2022/12/31 00:50:53;;;;;;;;;;;;;;;0.84;98.63;99164.03;4949443;28;19961;-66
2022/12/31 00:53:18;;;;;;;;;;;;;;;0.84;98.70;99163.22;4949004;28;19930;-67
2022/12/31 00:55:44;;;;;;;;;;;;;;;0.83;98.90;99162.38;4949494;28;19936;-67
2022/12/31 00:58:10;;;;;;;;;;;;;;;0.83;98.88;99159.69;4950826;28;20041;-67
2022/12/31 01:00:37;;;;;;;;;;;;;;;0.80;99.09;99157.44;4945679;28;19973;-67
2022/12/31 01:03:03;;;;;;;;;;;;;;;0.77;99.15;99157.06;4947595;28;19938;-68
2022/12/31 01:05:29;;;;;;;;;;;;;;;0.78;99.54;99153.34;4949038;28;19930;-68
2022/12/31 01:07:54;;;;;;;;;;;;;;;0.75;99.72;99154.63;4949012;28;19930;-68
2022/12/31 01:11:17;;;;;;;;;;;;;;;0.78;99.93;99150.63;4949717;28;19931;-68
2022/12/31 01:13:06;;;;;;;;;;;;;;;0.75;100.00;99156.47;4946980;28;20333;-66
2022/12/31 01:15:32;;;;;;;;;;;;;;;0.68;100.00;99151.19;4953456;28;19930;-66
2022/12/31 01:17:59;;;;;;;;;;;;;;;0.66;100.00;99155.97;4936203;28;19935;-67
2022/12/31 01:20:25;;;;;;;;;;;;;;;0.63;100.00;99162.66;4928638;29;19937;-66
2022/12/31 01:22:50;;;;;;;;;;;;;;;0.61;100.00;99153.94;4928293;29;20344;-67
2022/12/31 01:25:16;;;;;;;;;;;;;;;0.58;100.00;99158.97;4930491;29;19978;-66
2022/12/31 01:27:41;;;;;;;;;;;;;;;0.55;100.00;99163.75;4931667;28;19931;-66
2022/12/31 01:30:08;;;;;;;;;;;;;;;0.53;100.00;99160.44;4948490;28;19930;-67
2022/12/31 01:32:33;;;;;;;;;;;;;;;0.51;100.00;99159.84;4950801;28;20457;-67
2022/12/31 01:35:00;;;;;;;;;;;;;;;0.46;100.00;99165.09;4933218;28;19934;-67
2022/12/31 01:37:26;;;;;;;;;;;;;;;0.45;100.00;99160.75;4949388;28;19930;-66
2022/12/31 01:39:52;;;;;;;;;;;;;;;0.46;100.00;99159.72;4928516;29;19938;-67
2022/12/31 01:42:18;;;;;;;;;;;;;;;0.47;100.00;99157.84;4932554;29;20315;-67
2022/12/31 01:44:47;;;;;;;;;;;;;;;0.42;100.00;99159.34;4946401;28;20029;-66
2022/12/31 01:47:14;;;;;;;;;;;;;;;0.42;100.00;99159.34;4931852;29;19930;-67
2022/12/31 01:49:43;;;;;;;;;;;;;;;0.45;100.00;99168.84;4933395;29;20350;-66
2022/12/31 01:52:12;;;;;;;;;;;;;;;0.42;100.00;99161.22;4929159;29;20564;-66
2022/12/31 01:54:39;;;;;;;;;;;;;;;0.47;100.00;99155.97;4930877;29;19931;-66
2022/12/31 01:57:06;;;;;;;;;;;;;;;0.51;100.00;99157.16;4929399;29;19931;-66
2022/12/31 01:59:32;;;;;;;;;;;;;;;0.47;100.00;99155.97;4927967;28;19938;-66
2022/12/31 02:01:58;;;;;;;;;;;;;;;0.51;100.00;99159.84;4927638;29;19930;-66
2022/12/31 02:04:25;;;;;;;;;;;;;;;0.49;100.00;99155.75;4926906;29;19931;-66
2022/12/31 02:06:54;;;;;;;;;;;;;;;0.56;100.00;99151.97;4928059;29;20335;-67
2022/12/31 02:09:21;;;;;;;;;;;;;;;0.64;100.00;99156.22;4931324;29;19931;-67
2022/12/31 02:11:47;;;;;;;;;;;;;;;0.66;100.00;99151.41;4929504;29;20151;-67
2022/12/31 02:14:15;;;;;;;;;;;;;;;0.69;100.00;99144.75;4929120;29;20476;-67
2022/12/31 02:16:44;;;;;;;;;;;;;;;0.72;100.00;99146.19;4930244;29;19974;-67
2022/12/31 02:19:22;;;;;;;;;;;;;;;0.75;100.00;99153.78;4931293;29;20278;-67
2022/12/31 02:21:56;;;;;;;;;;;;;;;0.74;100.00;99154.84;4930597;29;20025;-66
2022/12/31 02:24:37;;;;;;;;;;;;;;;0.71;100.00;99158.81;4930554;29;19938;-67
2022/12/31 02:27:07;;;;;;;;;;;;;;;0.63;100.00;99151.88;4929674;29;20437;-67
2022/12/31 02:29:57;;;;;;;;;;;;;;;0.63;100.00;99151.88;4931735;29;19931;-67
2022/12/31 02:32:28;;;;;;;;;;;;;;;0.66;100.00;99147.91;4929296;29;20406;-67
2022/12/31 02:34:55;;;;;;;;;;;;;;;0.70;100.00;99155.28;4926452;29;19954;-66
2022/12/31 02:37:23;;;;;;;;;;;;;;;0.76;100.00;99156.28;4927355;29;19935;-67
2022/12/31 02:39:48;;;;;;;;;;;;;;;0.77;100.00;99157.91;4928053;29;20030;-66
2022/12/31 02:42:14;;;;;;;;;;;;;;;0.70;100.00;99157.16;4925779;29;20385;-67
2022/12/31 02:44:40;;;;;;;;;;;;;;;0.63;100.00;99167.19;4927351;29;19935;-67
2022/12/31 02:47:13;;;;;;;;;;;;;;;0.59;100.00;99166.81;4930027;29;19974;-67
2022/12/31 02:49:44;;;;;;;;;;;;;;;0.56;100.00;99168.09;4928939;29;20061;-67
2022/12/31 02:52:13;;;;;;;;;;;;;;;0.62;100.00;99157.47;4929221;29;19931;-67
2022/12/31 02:54:43;;;;;;;;;;;;;;;0.70;100.00;99158.00;4927808;29;19931;-67
2022/12/31 02:57:14;;;;;;;;;;;;;;;0.76;100.00;99158.13;4928065;29;19958;-67
2022/12/31 03:02:31;;;;;;;;;;;;;;;0.71;100.00;99172.28;4928342;29;20025;-67
2022/12/31 03:05:00;;;;;;;;;;;;;;;0.73;100.00;99164.81;4927652;29;19938;-67
2022/12/31 03:07:27;;;;;;;;;;;;;;;0.77;100.00;99167.84;4913993;29;20388;-67
2022/12/31 03:09:53;;;;;;;;;;;;;;;0.77;100.00;99171.38;4927961;29;19935;-67
2022/12/31 03:15:18;;;;;;;;;;;;;;;0.77;100.00;99173.22;4928304;29;19930;-67
2022/12/31 03:17:45;;;;;;;;;;;;;;;0.66;99.76;99161.34;4927835;29;20022;-67
2022/12/31 03:22:56;;;;;;;;;;;;;;;0.65;100.00;99163.22;4927067;29;20093;-67
2022/12/31 03:25:34;;;;;;;;;;;;;;;0.66;100.00;99177.50;4926733;29;20409;-70
2022/12/31 03:28:01;;;;;;;;;;;;;;;0.66;100.00;99182.88;4922827;29;19937;-67
2022/12/31 03:30:27;;;;;;;;;;;;;;;0.56;100.00;99178.84;4928507;29;19938;-67
2022/12/31 03:32:55;;;;;;;;;;;;;;;0.54;100.00;99172.03;4926960;29;19998;-67
2022/12/31 03:35:22;;;;;;;;;;;;;;;0.52;100.00;99169.56;4927381;29;19934;-67
2022/12/31 03:37:49;;;;;;;;;;;;;;;0.57;100.00;99174.28;4926203;29;19930;-67
2022/12/31 03:40:15;;;;;;;;;;;;;;;0.63;100.00;99172.56;4928063;29;20441;-67
2022/12/31 03:42:41;;;;;;;;;;;;;;;0.66;100.00;99172.94;4926270;29;20375;-67
2022/12/31 03:45:07;;;;;;;;;;;;;;;0.67;100.00;99168.38;4926420;29;19962;-67
2022/12/31 03:47:33;;;;;;;;;;;;;;;0.70;100.00;99173.28;4925665;29;19985;-68
2022/12/31 03:49:59;;;;;;;;;;;;;;;0.69;100.00;99177.88;4926138;29;19931;-68
2022/12/31 03:52:26;;;;;;;;;;;;;;;0.65;100.00;99174.00;4925818;29;19931;-68
2022/12/31 03:54:51;;;;;;;;;;;;;;;0.65;100.00;99179.38;4926649;28;19997;-68
2022/12/31 03:57:17;;;;;;;;;;;;;;;0.67;100.00;99176.44;4935634;28;20037;-68
2022/12/31 03:59:43;;;;;;;;;;;;;;;0.73;100.00;99174.72;4929607;29;20410;-68
2022/12/31 04:02:09;;;;;;;;;;;;;;;0.76;99.96;99183.19;4926744;29;19941;-67
2022/12/31 04:04:34;;;;;;;;;;;;;;;0.74;99.87;99195.22;4927480;29;20037;-66
2022/12/31 04:07:00;;;;;;;;;;;;;;;0.72;99.60;99194.63;4927186;29;19998;-67
2022/12/31 04:09:27;;;;;;;;;;;;;;;0.66;99.59;99193.63;4927055;29;20011;-67
2022/12/31 04:11:53;;;;;;;;;;;;;;;0.61;99.33;99194.31;4927781;29;20029;-66
2022/12/31 04:14:18;;;;;;;;;;;;;;;0.56;99.04;99200.38;4927477;29;20026;-67
2022/12/31 04:16:44;;;;;;;;;;;;;;;0.53;99.39;99194.63;4925537;29;19982;-67
2022/12/31 04:19:11;;;;;;;;;;;;;;;0.53;99.34;99206.19;4930261;28;19935;-67
2022/12/31 04:21:37;;;;;;;;;;;;;;;0.53;99.54;99200.00;4928131;29;19931;-68
2022/12/31 04:24:03;;;;;;;;;;;;;;;0.55;99.63;99204.13;4926841;29;20050;-67
2022/12/31 04:26:30;;;;;;;;;;;;;;;0.56;99.47;99207.63;4926196;29;19931;-67
2022/12/31 04:28:57;;;;;;;;;;;;;;;0.56;99.23;99205.75;4928473;29;20484;-68
2022/12/31 04:31:22;;;;;;;;;;;;;;;0.59;99.14;99200.97;4927161;29;20356;-68
2022/12/31 04:33:48;;;;;;;;;;;;;;;0.57;98.97;99203.88;4925280;29;20001;-68
2022/12/31 04:36:14;;;;;;;;;;;;;;;0.56;98.75;99215.69;4925261;29;20366;-68
2022/12/31 04:38:40;;;;;;;;;;;;;;;0.56;98.69;99221.06;4925532;29;20324;-68
2022/12/31 04:41:21;;;;;;;;;;;;;;;0.58;98.82;99213.59;4927729;28;19930;-68
2022/12/31 04:43:49;;;;;;;;;;;;;;;0.59;98.61;99215.25;4928386;29;19977;-68
2022/12/31 04:46:16;;;;;;;;;;;;;;;0.60;98.59;99214.19;4925647;29;20045;-68
2022/12/31 04:48:41;;;;;;;;;;;;;;;0.61;98.39;99215.84;4927115;29;19937;-68
2022/12/31 04:51:07;;;;;;;;;;;;;;;0.62;98.37;99227.44;4928363;29;20033;-67
2022/12/31 04:53:33;;;;;;;;;;;;;;;0.60;98.12;99222.25;4925070;29;20342;-67
2022/12/31 04:55:58;;;;;;;;;;;;;;;0.60;97.92;99232.22;4928202;29;19931;-68
2022/12/31 04:58:24;;;;;;;;;;;;;;;0.64;98.21;99236.09;4911367;29;19931;-67
2022/12/31 05:00:53;;;;;;;;;;;;;;;0.63;97.79;99232.59;4924779;28;19931;-67
2022/12/31 05:03:19;;;;;;;;;;;;;;;0.64;97.74;99245.00;4934667;29;19938;-67
2022/12/31 05:05:45;;;;;;;;;;;;;;;0.67;97.66;99251.78;4927158;29;19934;-67
2022/12/31 05:08:11;;;;;;;;;;;;;;;0.70;97.58;99257.56;4928189;29;19956;-67
2022/12/31 05:10:40;;;;;;;;;;;;;;;0.72;97.48;99265.44;4927118;29;20045;-66
2022/12/31 05:13:05;;;;;;;;;;;;;;;0.74;97.33;99257.09;4937895;28;20031;-67
2022/12/31 05:15:31;;;;;;;;;;;;;;;0.77;97.29;99267.44;4947595;28;19934;-67
2022/12/31 05:17:58;;;;;;;;;;;;;;;0.79;96.89;99268.03;4946905;28;19988;-67
2022/12/31 05:20:25;;;;;;;;;;;;;;;0.81;96.55;99264.06;4948228;28;19937;-66
2022/12/31 05:22:50;;;;;;;;;;;;;;;0.84;96.32;99266.31;4945572;28;19930;-66
2022/12/31 05:25:16;;;;;;;;;;;;;;;0.87;96.12;99270.44;4931827;28;19930;-66
2022/12/31 05:27:42;;;;;;;;;;;;;;;0.89;95.84;99276.41;4948486;28;19997;-67
2022/12/31 05:30:08;;;;;;;;;;;;;;;0.92;95.26;99281.34;4948418;28;19977;-67
2022/12/31 05:32:34;;;;;;;;;;;;;;;0.95;95.15;99293.53;4946729;28;19941;-66
2022/12/31 05:35:01;;;;;;;;;;;;;;;0.98;94.78;99293.09;4944012;28;20033;-67
2022/12/31 05:37:27;;;;;;;;;;;;;;;1.01;94.52;99300.72;4948444;28;19937;-67
2022/12/31 05:39:52;;;;;;;;;;;;;;;1.04;94.34;99312.91;4948564;28;19935;-67
2022/12/31 05:42:18;;;;;;;;;;;;;;;1.06;93.95;99313.50;4949927;28;20424;-67
2022/12/31 05:44:44;;;;;;;;;;;;;;;1.06;93.84;99311.66;4937385;28;19931;-67
2022/12/31 05:47:10;;;;;;;;;;;;;;;1.09;93.60;99321.13;4930236;29;19930;-67
2022/12/31 05:49:35;;;;;;;;;;;;;;;1.11;93.36;99325.25;4926476;29;19931;-67
2022/12/31 05:52:03;;;;;;;;;;;;;;;1.12;92.99;99328.78;4927068;29;19973;-67
2022/12/31 05:54:28;;;;;;;;;;;;;;;1.10;92.67;99330.88;4947839;28;19934;-67
2022/12/31 05:56:54;;;;;;;;;;;;;;;1.11;92.57;99343.31;4949724;28;19993;-67
2022/12/31 05:59:20;;;;;;;;;;;;;;;1.08;92.35;99339.19;4948474;28;19940;-67
2022/12/31 06:01:46;;;;;;;;;;;;;;;1.09;92.45;99348.91;4949747;28;19931;-67
2022/12/31 06:04:12;;;;;;;;;;;;;;;1.08;92.30;99344.56;4933049;29;19953;-67
2022/12/31 06:06:38;;;;;;;;;;;;;;;1.10;92.34;99350.53;4951039;28;19954;-67
2022/12/31 06:09:05;;;;;;;;;;;;;;;1.13;92.31;99358.16;4929597;29;20403;-67
2022/12/31 06:11:31;;;;;;;;;;;;;;;1.14;91.81;99364.41;4931150;29;20350;-67
2022/12/31 06:13:57;;;;;;;;;;;;;;;1.17;91.98;99366.63;4931125;29;19930;-67
2022/12/31 06:16:22;;;;;;;;;;;;;;;1.16;91.60;99373.06;4929818;29;19931;-67
2022/12/31 06:18:49;;;;;;;;;;;;;;;1.16;91.48;99372.22;4930096;29;20105;-67
2022/12/31 06:21:15;;;;;;;;;;;;;;;1.16;91.61;99378.47;4925721;29;20437;-67
2022/12/31 06:23:41;;;;;;;;;;;;;;;1.16;91.58;99386.53;4927952;29;19941;-67
2022/12/31 06:26:08;;;;;;;;;;;;;;;1.18;91.55;99397.91;4927937;29;20037;-67
2022/12/31 06:28:34;;;;;;;;;;;;;;;1.21;91.79;99400.16;4929329;29;19931;-67
2022/12/31 06:31:00;;;;;;;;;;;;;;;1.22;91.57;99409.88;4928434;29;19930;-67
2022/12/31 06:33:26;;;;;;;;;;;;;;;1.23;91.43;99410.72;4930055;29;19958;-67
2022/12/31 06:35:54;;;;;;;;;;;;;;;1.22;91.54;99412.56;4929743;29;20030;-68
2022/12/31 06:38:20;;;;;;;;;;;;;;;1.22;91.31;99422.53;4928644;29;19938;-67
2022/12/31 06:40:45;;;;;;;;;;;;;;;1.21;91.29;99412.81;4928425;29;20331;-67
2022/12/31 06:43:12;;;;;;;;;;;;;;;1.21;91.49;99418.19;4925064;29;20033;-67
2022/12/31 06:45:39;;;;;;;;;;;;;;;1.22;91.38;99427.91;4927451;29;19946;-66
2022/12/31 06:48:05;;;;;;;;;;;;;;;1.23;91.28;99432.25;4926423;29;19938;-66
2022/12/31 06:50:31;;;;;;;;;;;;;;;1.25;91.25;99440.94;4928831;28;20563;-66
2022/12/31 06:52:57;;;;;;;;;;;;;;;1.27;91.00;99439.69;4924787;28;19966;-67
2022/12/31 06:55:23;;;;;;;;;;;;;;;1.28;90.97;99448.56;4928939;29;19972;-67
2022/12/31 06:57:48;;;;;;;;;;;;;;;1.29;90.75;99452.91;4928047;29;19938;-66
2022/12/31 07:00:16;;;;;;;;;;;;;;;1.29;90.62;99460.19;4927166;29;19947;-66
2022/12/31 07:03:03;;;;;;;;;;;;;;;1.26;90.44;99461.44;4925269;29;19930;-67
2022/12/31 07:05:38;;;;;;;;;;;;;;;1.29;90.40;99454.78;4925938;29;19930;-66
2022/12/31 07:08:07;;;;;;;;;;;;;;;1.29;90.06;99457.50;4925427;29;19931;-66
2022/12/31 07:10:38;;;;;;;;;;;;;;;1.30;89.95;99473.41;4927718;29;19982;-66
2022/12/31 07:13:11;;;;;;;;;;;;;;;1.34;89.94;99477.34;4923437;29;19954;-66
2022/12/31 07:15:50;;;;;;;;;;;;;;;1.36;89.97;99469.00;4927340;29;19931;-66
2022/12/31 07:18:23;;;;;;;;;;;;;;;1.38;89.90;99480.38;4927210;29;19930;-66
2022/12/31 07:20:49;;;;;;;;;;;;;;;1.39;89.93;99473.94;4925621;29;19938;-66
2022/12/31 07:23:14;;;;;;;;;;;;;;;1.41;90.16;99477.28;4928107;29;19930;-66
2022/12/31 07:25:43;;;;;;;;;;;;;;;1.42;90.14;99484.31;4937709;28;19934;-67
2022/12/31 07:28:15;;;;;;;;;;;;;;;1.44;90.12;99478.69;4930290;29;20015;-66
2022/12/31 07:30:45;;;;;;;;;;;;;;;1.44;90.29;99490.28;4934067;29;20315;-67
2022/12/31 07:33:21;;;;;;;;;;;;;;;1.45;89.97;99500.03;4912465;29;20500;-66
2022/12/31 07:35:53;;;;;;;;;;;;;;;1.44;89.77;99505.63;4933428;29;19930;-67
2022/12/31 07:38:22;;;;;;;;;;;;;;;1.42;89.92;99490.50;4945753;28;20037;-67
2022/12/31 07:40:53;;;;;;;;;;;;;;;1.43;89.88;99496.72;4944543;28;19965;-67
2022/12/31 07:43:26;;;;;;;;;;;;;;;1.45;90.07;99499.19;4933241;28;19938;-67
2022/12/31 07:45:58;;;;;;;;;;;;;;;1.46;90.35;99509.75;4928082;29;19974;-68
2022/12/31 07:48:26;;;;;;;;;;;;;;;1.51;90.29;99518.00;4929051;29;19931;-66
2022/12/31 07:50:54;;;;;;;;;;;;;;;1.54;90.17;99519.44;4927405;29;20041;-66
2022/12/31 07:53:20;;;;;;;;;;;;;;;1.58;90.38;99517.94;4928846;29;19937;-66
2022/12/31 07:55:46;;;;;;;;;;;;;;;1.62;90.37;99515.63;4927469;29;19930;-66
2022/12/31 07:58:17;;;;;;;;;;;;;;;1.59;90.17;99516.88;4929816;29;20370;-66
2022/12/31 08:00:43;;;;;;;;;;;;;;;1.70;89.67;99529.63;4927120;29;19930;-66
2022/12/31 08:03:13;;;;;;;;;;;;;;;1.73;89.33;99530.22;4941551;28;19930;-67
2022/12/31 08:05:48;;;;;;;;;;;;;;;1.74;89.12;99532.72;4962823;28;20509;-68
2022/12/31 08:08:21;;;;;;;;;;;;;;;1.80;88.79;99531.81;4947637;28;20049;-67
2022/12/31 08:10:53;;;;;;;;;;;;;;;1.83;88.34;99523.25;4945425;28;19962;-67
2022/12/31 08:13:19;;;;;;;;;;;;;;;1.84;88.33;99532.19;4945038;28;20026;-67
2022/12/31 08:15:45;;;;;;;;;;;;;;;1.83;88.14;99535.94;4953231;28;20411;-67
2022/12/31 08:18:11;;;;;;;;;;;;;;;1.84;88.40;99541.09;4952411;28;19936;-67
2022/12/31 08:20:43;;;;;;;;;;;;;;;1.84;88.31;99535.69;4954974;28;19930;-67
2022/12/31 08:23:18;;;;;;;;;;;;;;;1.87;88.34;99530.91;4950943;28;20428;-67
2022/12/31 08:25:55;;;;;;;;;;;;;;;1.90;88.34;99533.16;4952149;28;19934;-66
2022/12/31 08:28:25;;;;;;;;;;;;;;;1.88;88.14;99532.56;4948223;28;20437;-66
2022/12/31 08:30:57;;;;;;;;;;;;;;;1.89;88.12;99537.72;4949436;28;19986;-67
2022/12/31 08:33:27;;;;;;;;;;;;;;;1.93;88.07;99541.63;4949934;28;19930;-66
2022/12/31 08:36:01;;;;;;;;;;;;;;;1.91;87.80;99530.22;4952505;28;19934;-66
2022/12/31 08:38:32;;;;;;;;;;;;;;;1.91;87.88;99545.59;4951195;28;19931;-66
2022/12/31 08:41:02;;;;;;;;;;;;;;;1.84;87.64;99548.38;4951620;28;19931;-66
2022/12/31 08:43:39;;;;;;;;;;;;;;;1.80;87.79;99550.69;4953149;28;20402;-66
2022/12/31 08:46:06;;;;;;;;;;;;;;;1.79;87.73;99540.94;4952048;28;19930;-66
2022/12/31 08:48:37;;;;;;;;;;;;;;;1.76;87.48;99548.66;4943227;28;19974;-66
2022/12/31 08:51:03;;;;;;;;;;;;;;;1.72;87.77;99560.94;4951289;28;19930;-66
2022/12/31 08:53:31;;;;;;;;;;;;;;;1.68;87.95;99555.16;4954862;28;19930;-66
2022/12/31 08:56:04;;;;;;;;;;;;;;;1.69;88.29;99551.41;4953845;28;19930;-66
2022/12/31 08:58:36;;;;;;;;;;;;;;;1.67;88.18;99564.28;4952648;28;19934;-65
2022/12/31 09:01:03;;;;;;;;;;;;;;;1.63;88.32;99574.69;4952673;28;20370;-66
2022/12/31 09:03:35;;;;;;;;;;;;;;;1.63;88.50;99568.47;4958155;28;20338;-66
2022/12/31 09:06:05;;;;;;;;;;;;;;;1.64;88.73;99560.19;4957342;28;19957;-66
2022/12/31 09:08:38;;;;;;;;;;;;;;;1.72;88.85;99569.84;4939134;28;19930;-66
2022/12/31 09:11:09;;;;;;;;;;;;;;;1.77;88.64;99578.09;4955542;28;20249;-65
2022/12/31 09:13:40;;;;;;;;;;;;;;;1.79;88.51;99580.53;4955515;28;19936;-66
2022/12/31 09:16:11;;;;;;;;;;;;;;;1.77;88.30;99577.25;4955320;28;19930;-66
2022/12/31 09:18:39;;;;;;;;;;;;;;;1.74;88.22;99572.31;4956667;28;20036;-65
2022/12/31 09:21:05;;;;;;;;;;;;;;;1.67;88.19;99585.84;4960905;28;19930;-66
2022/12/31 09:23:31;;;;;;;;;;;;;;;1.65;88.39;99580.69;4954558;28;19930;-66
2022/12/31 09:25:59;;;;;;;;;;;;;;;1.66;88.42;99584.19;4955358;28;20388;-66
2022/12/31 09:28:31;;;;;;;;;;;;;;;1.67;88.29;99591.25;4957209;28;19931;-65
2022/12/31 09:31:02;;;;;;;;;;;;;;;1.65;88.21;99594.19;4957637;28;19984;-66
2022/12/31 09:33:35;;;;;;;;;;;;;;;1.67;88.39;99594.78;4957309;28;19930;-66
2022/12/31 09:36:04;;;;;;;;;;;;;;;1.71;88.58;99611.31;4956946;28;19930;-66
2022/12/31 09:38:33;;;;;;;;;;;;;;;1.75;88.86;99609.84;4935225;28;19940;-65
2022/12/31 09:41:15;;;;;;;;;;;;;;;1.80;89.09;99610.00;4957591;28;19930;-65
2022/12/31 09:44:02;;;;;;;;;;;;;;;1.84;88.92;99615.78;4956409;28;19930;-64
2022/12/31 09:47:00;;;;;;;;;;;;;;;1.87;88.58;99609.09;4958302;28;19930;-64
2022/12/31 09:49:41;;;;;;;;;;;;;;;1.81;88.22;99600.06;4962424;28;19937;-65
2022/12/31 09:52:13;;;;;;;;;;;;;;;1.92;88.13;99620.06;4963879;28;20401;-65
2022/12/31 09:54:46;;;;;;;;;;;;;;;1.99;87.99;99612.72;4964492;28;19937;-65
2022/12/31 09:57:20;;;;;;;;;;;;;;;2.09;87.88;99612.19;4956758;28;20342;-65
2022/12/31 09:59:51;;;;;;;;;;;;;;;2.11;87.33;99613.63;4945418;28;20378;-65
2022/12/31 10:02:23;;;;;;;;;;;;;;;2.13;87.10;99619.63;4951677;28;20470;-65
2022/12/31 10:05:02;;;;;;;;;;;;;;;2.18;86.90;99612.72;4949181;28;19931;-66
2022/12/31 10:07:37;;;;;;;;;;;;;;;2.20;86.75;99633.06;4945488;28;20268;-65
2022/12/31 10:10:12;;;;;;;;;;;;;;;2.19;86.49;99630.59;4951084;28;19930;-66
2022/12/31 10:12:57;;;;;;;;;;;;;;;2.13;86.12;99645.78;4956912;28;20405;-66
2022/12/31 10:15:38;;;;;;;;;;;;;;;2.01;86.18;99644.88;4952716;28;19931;-65
2022/12/31 10:18:10;;;;;;;;;;;;;;;2.00;86.40;99657.53;4953190;28;19937;-65
2022/12/31 10:20:46;;;;;;;;;;;;;;;1.93;86.60;99662.97;4956462;28;19931;-65
2022/12/31 10:23:25;;;;;;;;;;;;;;;1.89;nan;99672.56;4954656;28;19930;-65
2022/12/31 10:26:12;;;;;;;;;;;;;;;1.75;86.74;99661.06;4957773;28;19931;-65
2022/12/31 10:28:46;;;;;;;;;;;;;;;1.82;86.92;99671.81;4948797;28;20389;-66
2022/12/31 10:31:13;;;;;;;;;;;;;;;1.78;86.76;99667.88;4959330;28;20345;-65
2022/12/31 10:33:42;;;;;;;;;;;;;;;1.76;86.83;99668.09;4957030;28;20187;-65
2022/12/31 10:36:10;;;;;;;;;;;;;;;1.74;86.73;99664.81;4955829;28;20337;-65
2022/12/31 10:38:42;;;;;;;;;;;;;;;1.74;87.22;99664.81;4950463;28;19931;-65
2022/12/31 10:41:32;;;;;;;;;;;;;;;1.79;86.97;99667.66;4943112;28;19930;-66
2022/12/31 10:44:16;;;;;;;;;;;;;;;1.82;87.07;99677.19;4945358;29;19994;-66
2022/12/31 10:46:58;;;;;;;;;;;;;;;1.83;87.02;99681.53;4611851;28;10001510;-66
2022/12/31 10:49:39;;;;;;;;;;;;;;;1.82;87.25;99669.09;4947564;28;19930;-65
2022/12/31 10:52:25;;;;;;;;;;;;;;;1.89;87.41;99672.56;4949705;28;19930;-65
2022/12/31 10:55:04;;;;;;;;;;;;;;;1.92;87.68;99676.69;4949066;28;19949;-65
2022/12/31 10:57:47;;;;;;;;;;;;;;;1.92;87.80;99674.00;4961939;28;19937;-65
2022/12/31 11:00:16;;;;;;;;;;;;;;;1.90;87.79;99668.81;4948150;28;19938;-65
2022/12/31 11:03:02;;;;;;;;;;;;;;;1.88;87.96;99670.09;4950687;28;20411;-66
2022/12/31 11:05:52;;;;;;;;;;;;;;;1.91;88.19;99672.34;4932204;28;20399;-65
2022/12/31 11:08:27;;;;;;;;;;;;;;;1.85;88.06;99682.13;4909543;28;20022;-66
2022/12/31 11:11:07;;;;;;;;;;;;;;;1.77;88.09;99688.63;4949227;28;19989;-65
2022/12/31 11:13:52;;;;;;;;;;;;;;;1.67;88.08;99696.38;4949225;28;19941;-65
2022/12/31 11:16:24;;;;;;;;;;;;;;;1.67;88.32;99709.84;4952234;28;19930;-66
2022/12/31 11:18:56;;;;;;;;;;;;;;;1.68;88.39;99711.50;4948793;28;19937;-65
2022/12/31 11:21:27;;;;;;;;;;;;;;;1.71;88.24;99719.13;4952275;28;19989;-65
2022/12/31 11:23:56;;;;;;;;;;;;;;;1.73;88.13;99717.09;4947230;28;20396;-65
2022/12/31 11:26:30;;;;;;;;;;;;;;;1.70;87.86;99733.66;4951458;28;19945;-66
2022/12/31 11:29:14;;;;;;;;;;;;;;;1.68;87.82;99730.38;4950958;28;20417;-65
2022/12/31 11:32:00;;;;;;;;;;;;;;;1.72;87.87;99737.00;4950950;28;20029;-65
2022/12/31 11:34:40;;;;;;;;;;;;;;;1.77;87.79;99729.06;4939464;28;19958;-65
2022/12/31 11:37:21;;;;;;;;;;;;;;;1.88;87.52;99735.63;4941462;28;19930;-65
2022/12/31 11:39:51;;;;;;;;;;;;;;;1.93;87.40;99740.38;4948414;28;20181;-66
2022/12/31 11:42:23;;;;;;;;;;;;;;;1.93;87.02;99746.56;4946097;28;19935;-66
2022/12/31 11:44:53;;;;;;;;;;;;;;;1.81;86.55;99749.16;4949398;28;19931;-65
2022/12/31 11:47:41;;;;;;;;;;;;;;;1.61;86.53;99764.63;4940013;28;19960;-66
2022/12/31 11:50:18;;;;;;;;;;;;;;;1.38;87.10;99769.53;4950020;28;19930;-66
2022/12/31 11:52:50;;;;;;;;;;;;;;;1.29;87.70;99764.59;4949370;28;19957;-65
2022/12/31 11:55:29;;;;;;;;;;;;;;;1.22;87.91;99770.00;4947525;28;19930;-65
2022/12/31 11:57:58;;;;;;;;;;;;;;;1.18;88.30;99772.31;4945690;28;19931;-65
2022/12/31 12:00:24;;;;;;;;;;;;;;;1.18;88.30;99776.88;4945534;28;19937;-65
2022/12/31 12:02:56;;;;;;;;;;;;;;;1.17;88.19;99786.81;4945565;28;20025;-65
2022/12/31 12:05:23;;;;;;;;;;;;;;;1.16;88.06;99773.53;4947608;28;20040;-65
2022/12/31 12:07:53;;;;;;;;;;;;;;;1.15;88.04;99778.13;4951425;28;19949;-66
2022/12/31 12:10:24;;;;;;;;;;;;;;;1.23;87.62;99785.94;4937607;28;20314;-65
2022/12/31 12:12:51;;;;;;;;;;;;;;;1.26;87.61;99779.31;4945358;28;20405;-65
2022/12/31 12:15:19;;;;;;;;;;;;;;;1.22;87.35;99787.00;4937411;28;19930;-65
2022/12/31 12:17:48;;;;;;;;;;;;;;;1.18;87.25;99779.56;4954968;28;19930;-65
2022/12/31 12:20:19;;;;;;;;;;;;;;;1.12;87.38;99784.75;4956689;28;20016;-65
2022/12/31 12:22:48;;;;;;;;;;;;;;;1.09;87.59;99787.03;4951731;28;19977;-65
2022/12/31 12:25:16;;;;;;;;;;;;;;;1.11;87.37;99801.94;4949431;28;20495;-65
2022/12/31 12:27:42;;;;;;;;;;;;;;;1.11;87.35;99798.44;4950585;28;19930;-64
2022/12/31 12:30:08;;;;;;;;;;;;;;;1.09;87.46;99803.19;4957026;28;19937;-65
2022/12/31 12:32:34;;;;;;;;;;;;;;;1.08;87.74;99798.84;4957538;28;19956;-65
2022/12/31 12:35:00;;;;;;;;;;;;;;;1.05;87.72;99800.13;4957514;28;20473;-65
2022/12/31 12:37:31;;;;;;;;;;;;;;;1.06;87.89;99811.69;4951442;28;20366;-65
2022/12/31 12:39:58;;;;;;;;;;;;;;;1.02;87.98;99810.47;4958278;28;19960;-65
2022/12/31 12:42:24;;;;;;;;;;;;;;;0.97;88.08;99809.25;4955728;28;19965;-65
2022/12/31 12:44:59;;;;;;;;;;;;;;;0.96;88.33;99815.69;4956224;28;19969;-66
2022/12/31 12:47:25;;;;;;;;;;;;;;;1.01;88.19;99812.34;4952689;28;20369;-66
2022/12/31 12:49:53;;;;;;;;;;;;;;;1.08;88.20;99817.69;4955109;28;19942;-65
2022/12/31 12:52:28;;;;;;;;;;;;;;;1.13;87.94;99818.72;4957299;28;20516;-65
2022/12/31 12:55:03;;;;;;;;;;;;;;;1.21;87.71;99816.84;4953840;28;20073;-65
2022/12/31 12:57:33;;;;;;;;;;;;;;;1.26;87.62;99817.88;4954089;28;19930;-65
2022/12/31 13:00:14;;;;;;;;;;;;;;;1.34;87.50;99800.63;4953704;28;19930;-67
2022/12/31 13:02:54;;;;;;;;;;;;;;;1.42;87.15;99816.53;4954103;28;19956;-65
2022/12/31 13:05:23;;;;;;;;;;;;;;;1.41;87.10;99801.44;4956309;28;19930;-65
2022/12/31 13:07:56;;;;;;;;;;;;;;;1.38;87.00;99811.78;4953661;28;19931;-65
2022/12/31 13:10:27;;;;;;;;;;;;;;;1.33;87.01;99801.69;4956640;28;19930;-65
2022/12/31 13:12:59;;;;;;;;;;;;;;;1.29;86.99;99802.31;4957167;28;19935;-65
2022/12/31 13:15:29;;;;;;;;;;;;;;;1.21;87.18;99803.38;4954039;28;19936;-65
2022/12/31 13:18:02;;;;;;;;;;;;;;;1.17;87.22;99816.44;4956927;28;19938;-65